LGW weather

Public forecast

Using degrees Celsius for public forecast. Weather courtesy of forecast.io.

Current aviation weather report (METAR) for London Gatwick Airport

Retrieved 2020/08/15 01:50 UTC (11 minutes ago):

EGKK 150150Z 03003KT 4000 HZ BKN005 18/17 Q1014

Aviation forecast (TAF) for London Gatwick Airport

Retrieved 2020-08-15 00:00 UTC (2 hours ago):

TAF EGKK 142259Z 1500/1606 30006KT 9999 BKN007 PROB30 TEMPO 1500/1521 3000 +TSRA PROB30 TEMPO 1502/1509 BKN004 BECMG 1509/1512 BKN012 TEMPO 1512/1520 SCT018 BECMG 1518/1521 8000 PROB30 TEMPO 1521/1523 BKN008 BECMG 1523/1602 BKN006 PROB30 1601/1606 BKN004